Tiempo atmosférico en la estación meteorológica de Santa Elena, Jaén (742 m.)



Fecha
DESCASC
Temp. máxima en grados centígrados (hora)
DESCASC
Temp. mínima en grados centígrados (hora)
DESCASC
Temp. media en grados centígrados
DESCASC
Racha de viento máxima en m/sg (hora)
DESCASC
Velocidad máxima media en intervalos de 10 minutos(hora)
DESCASC
Precipitaciones diarias en mm
DESCASC
Precipitaciones de 00:00 a 06:00 en mm
DESCASC
Precipitaciones de 06:00 a 12:00 en mm
DESCASC
Precipitaciones de 12:00 a 18:00 en mm
DESCASC
Precipitaciones de 18:00 a 24:00 en mm
DESCASC
04-07-2019 34.8 (17:40) 17 (00:00) 25.9 8.33 (19:30) 4.17 (19:50) 0 0 0 0 0
18-07-2019 38.3 (19:40) 17.2 (07:10) 27.8 6.67 (17:00) 2.78 (17:00) 0 0 0 0 0
17-07-2019 34.4 (19:30) 17.8 (07:50) 26.1 10.28 (18:20) 4.44 (18:10) 0 0 0 0 0
16-07-2019 37.8 (17:00) 20.1 (07:20) 28.9 11.67 (18:50) 5 (18:40) 0 0 0 0 0
15-07-2019 36.2 (19:40) 18.7 (07:00) 27.5 11.39 (16:50) 4.44 (17:10) 0 0 0 0 0
14-07-2019 33.6 (18:10) 15.8 (00:00) 24.7 8.89 (17:10) 3.61 (19:00) 0 0 0 0 0
13-07-2019 34.7 (15:40) 19.9 (00:00) 27.3 12.22 (20:30) 5.28 (16:20) 0 0 0 0 0
12-07-2019 38.4 (19:30) 20.5 (00:00) 29.5 10.56 (22:40) 3.89 (18:10) 0 0 0 0 0
11-07-2019 41.2 (19:00) 19.7 (00:00) 30.5 7.5 (00:10) 3.33 (00:20) 0 0 0 0 0
10-07-2019 38.2 (19:10) 17.7 (00:00) 28 7.22 (22:30) 3.89 (22:50) 0 0 0 0 0
09-07-2019 31.9 (17:40) 13.6 (00:00) 22.8 8.89 (15:50) 3.06 (16:40) 0 0 0 0 0
08-07-2019 30.4 (15:40) 14.6 (00:00) 22.5 12.22 (16:30) 4.72 (17:20) 0 0 0 0 0
07-07-2019 34.8 (15:40) 16.6 (00:00) 25.7 11.39 (20:10) 5.28 (21:00) 0 0 0 0 0
06-07-2019 34.4 (13:50) 18.4 (00:00) 26.4 9.72 (13:50) 4.44 (17:00) 0 0 0 0 0
05-07-2019 35.3 (18:20) 17 (00:00) 26.1 10.28 (15:40) 4.72 (17:10) 0 0 0 0 0
20-06-2019 31.1 (17:40) 13.6 (00:00) 22.4 10 (19:10) 5 (20:00) 0 0 0 0 0
03-07-2019 35.9 (18:50) 17.7 (00:00) 26.8 8.61 (14:10) 3.61 (17:00) 0 0 0 0 0
02-07-2019 36.8 (19:00) 17.6 (07:30) 27.2 10.28 (19:40) 4.72 (19:30) 0 0 0 0 0
01-07-2019 37.5 (19:00) 18.8 (07:30) 28.1 10.56 (18:20) 4.44 (00:10) 0 0 0 0 0
30-06-2019 39 (18:10) 19.9 (00:00) 29.4 8.61 (16:40) 4.44 (23:59) 0 0 0 0 0
29-06-2019 42.6 (18:40) 20.7 (00:00) 31.6 8.61 (17:30) 3.89 (23:00) 0 0 0 0 0
28-06-2019 42.5 (17:10) 21.1 (00:00) 31.8 8.61 (15:50) 3.33 (15:00) 0 0 0 0 0
27-06-2019 38 (17:30) 18.3 (00:00) 28.1 7.5 (21:30) 3.06 (21:20) 0 0 0 0 0
26-06-2019 37.1 (19:20) 18.1 (00:00) 27.6 8.06 (18:00) 3.06 (19:00) 0 0 0 0 0
25-06-2019 37.5 (18:20) 17.4 (00:00) 27.4 9.17 (19:20) 3.33 (19:20) 0 0 0 0 0
24-06-2019 34 (18:30) 17.7 (00:00) 25.9 8.33 (17:10) 3.89 (17:40) 0 0 0 0 0
23-06-2019 37.6 (18:10) 17.4 (00:00) 27.5 8.61 (20:20) 4.17 (21:30) 0 0 0 0 0
22-06-2019 34.5 (19:40) 16.9 (00:00) 25.7 8.06 (16:40) 3.06 (11:10) 0 0 0 0 0
21-06-2019 32.3 (18:40) 13.8 (00:00) 23 8.33 (19:10) 3.33 (16:00) 0 0 0 0 0

Gráficas

Temp. máximas Temp. mínimas Temp. medias Precipitaciones Rachas de viento máximas Velocidades máximas media en intervalos de 10 minutos

Datos horarios

Fecha y hora oficial Temperatura (ºC) Velocidad del viento (km/h) Dirección del viento Racha (km/h) Dirección de racha Precipitación (mm) Presión (hPa) Tendencia (hPa) Humedad (%)
2019-07-19 23:00:00 30.3 5 Sur 14 Sur 0 925.8 0.8 16
2019-07-19 22:00:00 32.7 4 Sur 12 Sudoeste 0 925.3 0.3 12
2019-07-19 21:00:00 36.2 4 Sudoeste 14 Sur 0 925.1 -0.3 10
2019-07-19 20:00:00 39.2 5 Oeste 17 Sudoeste 0 925 -0.8 9
2019-07-19 19:00:00 39.6 8 Oeste 19 Noroeste 0 925 -1.4 8
2019-07-19 18:00:00 39 6 Este 25 Sur 0 925.4 -1.8 8
2019-07-19 17:00:00 39 7 Sur 22 Sudeste 0 925.8 -1.9 10
2019-07-19 16:00:00 39 6 Oeste 20 Sudeste 0 926.4 -1.8 11
2019-07-19 15:00:00 37 6 Sudeste 25 Sur 0 927.2 -1.3 12
2019-07-19 14:00:00 36.2 8 Sur 23 Sudoeste 0 927.7 -0.9 14
2019-07-19 13:00:00 34.2 5 Sudoeste 19 Sudoeste 0 928.2 -0.5 17
2019-07-19 12:00:00 32.5 7 Sur 17 Sur 0 928.5 0.1 20
2019-07-19 11:00:00 29.5 5 Sur 15 Sur 0 928.6 0.5 27
2019-07-19 10:00:00 26.9 6 Sur 15 Sur 0 928.7 0.7 38
2019-07-19 09:00:00 23.5 3 Sudoeste 7 Sudoeste 0 928.4 0.6 48
2019-07-19 08:00:00 22 5 Sur 10 Oeste 0 928.1 0.4 50
2019-07-19 07:00:00 21.4 4 Oeste 7 Oeste 0 928 0.2 40
2019-07-19 06:00:00 21.6 0 Calma 8 Sur 0 927.8 -0.1 36
2019-07-19 05:00:00 22.4 7 Sudeste 12 Sudeste 0 927.7 -0.3 35
2019-07-19 04:00:00 23 5 Sudeste 15 Sudoeste 0 927.8 -0.1 31
2019-07-19 03:00:00 24.2 6 Sur 12 Sur 0 927.9 0.4 30
2019-07-19 02:00:00 25.6 4 Sudoeste 8 Este 0 928 1 25
2019-07-19 01:00:00 26.7 7 Sudeste 21 Sudeste 0 927.9 1.2 24
2019-07-19 00:00:00 28.1 8 Nordeste 16 Nordeste 0 927.5 1.2 19
2019-07-18 23:00:00 30 8 Oeste 12 Noroeste 0 927 1 17
2019-07-18 22:00:00 31.3 7 Oeste 13 Oeste 0 926.7 0.7 15
2019-07-18 21:00:00 34.4 5 Oeste 12 Sudoeste 0 926.3 -0.1 13
2019-07-18 20:00:00 37.9 5 Sudoeste 18 Sudeste 0 926 -0.8 11
2019-07-18 19:00:00 37.7 8 Sur 22 Oeste 0 926 -1.2 12
2019-07-18 18:00:00 37.6 7 Sudoeste 21 Sudoeste 0 926.4 -1.4 12
2019-07-18 17:00:00 37 10 Sudoeste 24 Sudoeste 0 926.8 -1.5 12
2019-07-18 16:00:00 36.8 8 Sur 20 Sur 0 927.2 -1.6 13
2019-07-18 15:00:00 35.4 8 Sur 19 Sudeste 0 927.8 -1.2 14
2019-07-18 14:00:00 33.5 5 Sur 18 Sur 0 928.3 -0.7 22
2019-07-18 13:00:00 31.6 6 Sur 19 Sur 0 928.8 -0.3 27
2019-07-18 12:00:00 29.1 6 Sudeste 15 Este 0 929 0.1 33
2019-07-18 11:00:00 26.2 4 Sudeste 13 Sudeste 0 929 0.6 40
2019-07-18 10:00:00 22.9 5 Sudeste 11 Este 0 929.1 0.8 53
2019-07-18 09:00:00 19.2 3 Norte 7 Nordeste 0 928.9 0.8 66
2019-07-18 08:00:00 17.3 3 Norte 6 Norte 0 928.4 0.3 65
2019-07-18 07:00:00 17.4 2 Nordeste 9 Sudeste 0 928.3 0.2 67
2019-07-18 06:00:00 18.5 6 Sudeste 9 Sudeste 0 928.1 -0.3 68
2019-07-18 05:00:00 18.8 4 Sur 9 Sur 0 928.1 -0.4 63
2019-07-18 04:00:00 20 6 Sur 10 Sur 0 928.1 -0.3 58
2019-07-18 03:00:00 20.8 4 Sur 8 Sur 0 928.4 -0.1 49
2019-07-18 02:00:00 21.8 5 Sudoeste 18 Sudoeste 0 928.5 0.6 45
2019-07-18 01:00:00 22.5 8 Sudoeste 17 Sudoeste 0 928.4 1.3 41
2019-07-18 00:00:00 23.3 5 Sur 22 Sudoeste 0 928.5 1.8 31
2019-07-17 23:00:00 24.3 9 Sudoeste 20 Sur 0 927.9 1.7 26
2019-07-17 22:00:00 25.7 7 Sur 23 Sur 0 927.1 1 23
2019-07-17 21:00:00 29.5 9 Sur 25 Sur 0 926.7 0.1 16
2019-07-17 20:00:00 34 9 Sudoeste 26 Sudoeste 0 926.2 -0.4 10
2019-07-17 19:00:00 34 10 Sudoeste 37 Sudoeste 0 926.1 -0.9 9
2019-07-17 18:00:00 33.5 11 Oeste 36 Oeste 0 926.6 -0.7 11
2019-07-17 17:00:00 34.1 12 Oeste 36 Sudoeste 0 926.6 -1.2 11
2019-07-17 16:00:00 33.6 14 Sudoeste 32 Sudoeste 0 927 -1.3 13
2019-07-17 15:00:00 32.2 13 Sudoeste 28 Sudoeste 0 927.3 -1.1 17
2019-07-17 14:00:00 31.1 10 Sudoeste 28 Sudoeste 0 927.8 -0.8 23
2019-07-17 13:00:00 29.6 9 Sudoeste 26 Sur 0 928.3 -0.2 30
2019-07-17 12:00:00 28 8 Sur 21 Sur 0 928.4 0 34
2019-07-17 11:00:00 25.6 5 Sur 16 Este 0 928.6 0.6 39
2019-07-17 10:00:00 22.8 5 Sudeste 12 Sudeste 0 928.5 0.8 47
2019-07-17 09:00:00 19 4 Sur 8 Sur 0 928.4 0.8 60
2019-07-17 08:00:00 18 2 Sudeste 12 Sur 0 928 0.5 58
2019-07-17 07:00:00 18.5 8 Sur 13 Sur 0 927.7 0.1 51
2019-07-17 06:00:00 19.7 6 Sur 9 Sur 0 927.6 -0.2 44
2019-07-17 05:00:00 20.4 5 Sur 12 Sudoeste 0 927.5 -0.4 41
2019-07-17 04:00:00 21.4 6 Sudeste 13 Sur 0 927.6 -0.3 38
2019-07-17 03:00:00 22.2 4 Sur 16 Sudoeste 0 927.8 0 38
2019-07-17 02:00:00 23 8 Sudoeste 21 Sudoeste 0 927.9 0.6 36
2019-07-17 01:00:00 24.4 12 Sudoeste 22 Sur 0 927.9 1.3 37
2019-07-17 00:00:00 26.1 6 Sur 18 Sur 0 927.8 1.5 37
2019-07-16 23:00:00 27.7 6 Sudoeste 19 Sudoeste 0 927.3 1.3 27
2019-07-16 22:00:00 29.1 9 Oeste 29 Oeste 0 926.6 0.7 20
2019-07-16 21:00:00 32.3 12 Oeste 29 Sudoeste 0 926.3 0.2 13
2019-07-16 20:00:00 35.4 17 Oeste 40 Sudoeste 0 926 -0.4 10
2019-07-16 19:00:00 36.3 15 Oeste 42 Oeste 0 925.9 -0.8 8
2019-07-16 18:00:00 37.2 15 Sudoeste 41 Sudoeste 0 926.1 -1 10
2019-07-16 17:00:00 37.8 15 Sudoeste 40 Sudoeste 0 926.4 -1 9
2019-07-16 16:00:00 37.2 15 Sudoeste 37 Sudoeste 0 926.7 -1.1 9
2019-07-16 15:00:00 35.8 16 Oeste 35 Sudoeste 0 927.1 -0.9 12
2019-07-16 14:00:00 34.7 9 Sudoeste 31 Sur 0 927.4 -0.6 17
2019-07-16 13:00:00 32.9 6 Sur 19 Sur 0 927.8 0 26
2019-07-16 12:00:00 30.6 5 Sur 17 Sudoeste 0 928 0.3 30
2019-07-16 11:00:00 28.2 7 Sur 18 Sur 0 928 0.7 35
2019-07-16 10:00:00 24.9 5 Sur 13 Sudoeste 0 927.8 0.6 48
2019-07-16 09:00:00 21.5 5 Sur 11 Sur 0 927.7 0.7 60
2019-07-16 08:00:00 20.1 2 Norte 7 Sudeste 0 927.3 0.2 59
2019-07-16 07:00:00 20.3 3 Sudeste 8 Sudeste 0 927.2 -0.2 59
2019-07-16 06:00:00 20.8 2 Norte 5 Sudeste 0 927 -0.5 55
2019-07-16 05:00:00 21.4 2 Nordeste 8 Sur 0 927.1 -0.2 56
2019-07-16 04:00:00 22.2 3 Sur 10 Sur 0 927.4 0 53
2019-07-16 03:00:00 23.4 7 Sudeste 12 Sudeste 0 927.5 0.2 47
2019-07-16 02:00:00 24.3 7 Sudoeste 12 Sudoeste 0 927.3 0.1 40
2019-07-16 01:00:00 25.5 5 Sudoeste 19 Sudoeste 0 927.4 0.9 39
2019-07-16 00:00:00 26.6 10 Sudoeste 21 Sudoeste 0 927.3 1.4 36
2019-07-15 23:00:00 28 11 Sudoeste 22 Sudoeste 0 927.2 1.7 33
2019-07-15 22:00:00 29.4 10 Sudoeste 25 Sudoeste 0 926.5 1.1 30
2019-07-15 21:00:00 32.2 11 Sudoeste 35 Sudoeste 0 925.9 0.2 24
2019-07-15 20:00:00 35.6 15 Oeste 33 Sudoeste 0 925.5 -0.4 18
2019-07-15 19:00:00 33.6 8 Sur 30 Sur 0 925.4 -0.9 22
2019-07-15 18:00:00 34.6 11 Sudoeste 35 Sudoeste 0 925.7 -1.1 22
2019-07-15 17:00:00 35.6 13 Sudoeste 41 Sudoeste 0 925.9 -1.3 22
2019-07-15 16:00:00 36.1 14 Sur 32 Sudoeste 0 926.3 -1.6 23
2019-07-15 15:00:00 34.8 9 Sudoeste 30 Sudoeste 0 926.8 -1.1 25
2019-07-15 14:00:00 32.9 10 Sur 30 Sur 0 927.2 -0.7 28
2019-07-15 13:00:00 30.9 8 Sur 23 Sur 0 927.9 -0.1 32
2019-07-15 12:00:00 29.1 8 Sur 21 Sur 0 927.9 0 37
2019-07-15 11:00:00 26.6 6 Sur 17 Sur 0 927.9 0.3 45
2019-07-15 10:00:00 23.7 6 Sur 13 Sur 0 928 0.6 55
2019-07-15 09:00:00 20 3 Nordeste 7 Norte 0 927.9 0.8 68
2019-07-15 08:00:00 18.9 3 Sudeste 9 Sudeste 0 927.6 0.6 72
2019-07-15 07:00:00 18.7 3 Este 10 Sur 0 927.4 0.4 71
2019-07-15 06:00:00 19.7 6 Sur 14 Sur 0 927.1 0 68
2019-07-15 05:00:00 21 5 Sur 10 Sur 0 927 -0.3 62
2019-07-15 04:00:00 21.6 3 Sudeste 9 Sudoeste 0 927 -0.4 58
2019-07-15 03:00:00 22 3 Sur 14 Sudoeste 0 927.1 -0.3 54
2019-07-15 02:00:00 23.2 10 Sudoeste 15 Sudoeste 0 927.3 0.1 47
2019-07-15 01:00:00 23.9 8 Sudoeste 23 Sudoeste 0 927.4 0.5 43
2019-07-15 00:00:00 24.7 10 Sudoeste 19 Sudoeste 0 927.4 0.9 40
2019-07-14 23:00:00 26 8 Sudoeste 21 Sudoeste 0 927.2 0.9 36
2019-07-14 22:00:00 27.2 11 Sudoeste 23 Sudoeste 0 926.9 0.7 32
2019-07-14 21:00:00 29.6 9 Sur 24 Sur 0 926.5 0.2 28
2019-07-14 20:00:00 32.3 9 Sur 24 Sudoeste 0 926.3 -0.2 25
2019-07-14 19:00:00 33.1 13 Sudoeste 24 Sudoeste 0 926.2 -0.9 25
2019-07-14 18:00:00 33.4 11 Sudoeste 32 Sudoeste 0 926.3 -1.2 25
2019-07-14 17:00:00 33.1 9 Sur 30 Sudoeste 0 926.5 -1.4 26
2019-07-14 16:00:00 32.5 11 Sur 26 Sur 0 927.1 -1 28
2019-07-14 15:00:00 30.3 9 Sur 23 Sudoeste 0 927.5 -0.7 32
2019-07-14 14:00:00 28.1 9 Sur 26 Sur 0 927.9 -0.2 39
2019-07-14 13:00:00 27.1 9 Sur 25 Sudoeste 0 928.1 0 41
2019-07-14 12:00:00 25.5 9 Sudoeste 22 Sudoeste 0 928.2 0.1 46
2019-07-14 11:00:00 22.7 9 Sudoeste 20 Sudoeste 0 928.1 0.4 56
2019-07-14 10:00:00 19.9 6 Sur 19 Sur 0 928.1 0.5 67
2019-07-14 09:00:00 17 4 Sudeste 15 Sur 0 928.1 0.6 78
2019-07-14 08:00:00 16 6 Sur 12 Sur 0 927.7 0.4 80
2019-07-14 07:00:00 16 5 Sur 10 Sur 0 927.6 0.1 78
2019-07-14 06:00:00 16.8 5 Sur 14 Sur 0 927.5 -0.1 76
2019-07-14 05:00:00 17.5 4 Sur 12 Sudoeste 0 927.3 -0.7 72
2019-07-14 04:00:00 18.4 4 Sudeste 18 Sur 0 927.5 -0.8 68
2019-07-14 03:00:00 20 6 Sur 13 Sur 0 927.6 -0.4 59
2019-07-14 02:00:00 21.1 4 Sudoeste 11 Sudoeste 0 928 -0.1 49
2019-07-14 01:00:00 21.9 6 Sudoeste 21 Sudoeste 0 928.3 1.1 44
2019-07-14 00:00:00 22.9 12 Sudoeste 22 Sudoeste 0 928 1.4 40
2019-07-13 23:00:00 24.2 11 Sudoeste 23 Sudoeste 0 928.1 1.6 32
2019-07-13 22:00:00 26 14 Sudoeste 30 Sudoeste 0 927.2 0.8 24
2019-07-13 21:00:00 28.8 11 Sudoeste 44 Sudoeste 0 926.6 -0.3 22
2019-07-13 20:00:00 32.4 16 Sudoeste 36 Sudoeste 0 926.5 -0.9 19
2019-07-13 19:00:00 33.5 17 Sudoeste 36 Sudoeste 0 926.4 -1.2 18
2019-07-13 18:00:00 33.4 16 Sudoeste 38 Oeste 0 926.9 -1.2 15
2019-07-13 17:00:00 33.6 15 Oeste 40 Sudoeste 0 927.4 -1.5 15
2019-07-13 16:00:00 34.5 15 Sudoeste 35 Sudoeste 0 927.6 -1.8 15
2019-07-13 15:00:00 33 12 Sur 34 Sudoeste 0 928.1 -1.5 23
2019-07-13 14:00:00 31.5 12 Sudoeste 27 Sur 0 928.9 -0.6 28
2019-07-13 13:00:00 30.1 8 Sur 22 Sur 0 929.4 -0.2 34
2019-07-13 12:00:00 27.4 7 Sudoeste 18 Sudoeste 0 929.6 -0.1 43
2019-07-13 11:00:00 25.5 8 Sur 18 Sur 0 929.5 0.6 50
2019-07-13 10:00:00 23.2 6 Sur 14 Sur 0 929.6 0.8 59
2019-07-13 09:00:00 21 3 Sudoeste 14 Sur 0 929.7 0.8 68
2019-07-13 08:00:00 20 4 Sur 14 Sur 0 928.9 -0.8 70
2019-07-13 07:00:00 20 4 Sur 10 Oeste 0 928.8 -0.5 67
2019-07-13 06:00:00 20.8 4 Oeste 29 Sur 0 928.9 -0.3 64
2019-07-13 05:00:00 22.1 8 Sur 24 Sur 0 929.7 -0.1 57
2019-07-13 04:00:00 23.6 5 Sur 21 Sur 0 929.3 -0.8 51
2019-07-13 03:00:00 25.6 7 Sur 14 Sur 0 929.2 0.1 45
2019-07-13 02:00:00 26.6 4 Sudoeste 22 Sudoeste 0 929.8 -0.2 38
2019-07-13 01:00:00 27.8 8 Sur 30 Sur 0 930.1 2 34
2019-07-13 00:00:00 28.3 6 Sur 23 Sudoeste 0 929.1 1.3 33
2019-07-12 23:00:00 29.7 14 Sudoeste 38 Sur 0 930 2.1 30
2019-07-12 22:00:00 30.9 6 Oeste 23 Sudoeste 0 928.1 0.8 23
2019-07-12 21:00:00 33.1 7 Sudoeste 19 Sudoeste 0 927.8 -0.7 21
2019-07-12 20:00:00 35.5 10 Sur 24 Sur 0 927.9 0.2 17
2019-07-12 19:00:00 37.6 5 Este 34 Sur 0 927.3 -0.5 12
2019-07-12 18:00:00 37 14 Sur 35 Sur 0 928.5 -0.3 14
2019-07-12 17:00:00 37.1 5 Nordeste 26 Este 0 927.7 -2.4 13
2019-07-12 16:00:00 36.5 9 Nordeste 33 Nordeste 0 927.8 -2.7 16
2019-07-12 15:00:00 34 12 Norte 21 Norte 0 928.8 -1.8 18
2019-07-12 14:00:00 34.7 3 Sur 19 Nordeste 0 930.1 -0.2 21
2019-07-12 13:00:00 32.9 5 Sur 12 Sudoeste 0 930.5 -0.1 25
2019-07-12 12:00:00 31.3 6 Sur 17 Sur 0 930.6 0.3 29
2019-07-12 11:00:00 29.4 4 Nordeste 12 Nordeste 0 930.3 0.4 31
2019-07-12 10:00:00 25.5 3 Sudeste 15 Sudoeste 0 930.6 0.8 45
2019-07-12 09:00:00 23.2 3 Sur 7 Sudoeste 0 930.3 0.6 52
2019-07-12 08:00:00 21.2 3 Norte 8 Norte 0 929.9 0.7 54
2019-07-12 07:00:00 21 4 Noroeste 7 Norte 0 929.8 1 59
2019-07-12 06:00:00 21.9 3 Sur 18 Sur 0 929.7 1.2 55
2019-07-12 05:00:00 23.1 8 Sur 15 Sur 0 929.2 0.6 43
2019-07-12 04:00:00 24.2 4 Sur 14 Sur 0 928.8 0.5 32
2019-07-12 03:00:00 25.7 9 Sur 17 Sur 0 928.5 0.4 28
2019-07-12 02:00:00 27.2 7 Sur 15 Sudoeste 0 928.6 0.6 24
2019-07-12 01:00:00 30.1 6 Sur 12 Nordeste 0 928.3 1.2 19
2019-07-12 00:00:00 31.1 6 Norte 11 Norte 0 928.1 1.5 16
2019-07-11 23:00:00 31.9 6 Norte 15 Norte 0 928 1.5 15
2019-07-11 22:00:00 34 8 Oeste 15 Sudoeste 0 927.1 0.6 11
2019-07-11 21:00:00 36.9 6 Sudoeste 17 Oeste 0 926.6 0 10
2019-07-11 20:00:00 40.2 6 Sudoeste 18 Sudoeste 0 926.5 -0.2 9
2019-07-11 19:00:00 41.1 6 Sur 19 Oeste 0 926.5 -0.6 9
2019-07-11 18:00:00 40.5 7 Sur 24 Sur 0 926.6 -0.8 9
2019-07-11 17:00:00 40.5 8 Sur 25 Sur 0 926.7 -1.3 9
2019-07-11 16:00:00 40.1 7 Sudoeste 18 Sudeste 0 927.1 -1.3 10
2019-07-11 15:00:00 38.3 5 Este 22 Este 0 927.4 -1.2 10
2019-07-11 14:00:00 36.9 8 Sudeste 19 Sudeste 0 928 -0.8 11
2019-07-11 13:00:00 34.6 5 Este 15 Nordeste 0 928.4 -0.3 15
2019-07-11 12:00:00 32.2 3 Oeste 12 Sur 0 928.6 0 20
2019-07-11 11:00:00 29.4 5 Sur 10 Sur 0 928.8 0.5 23
2019-07-11 10:00:00 25.3 0 Calma 6 Norte 0 928.7 0.8 30
2019-07-11 09:00:00 21.2 4 Norte 8 Norte 0 928.6 0.9 38
2019-07-11 08:00:00 19.8 2 Norte 10 Sudeste 0 928.3 0.9 39
2019-07-11 07:00:00 19.8 0 Calma 5 Norte 0 927.9 0.4 39
2019-07-11 06:00:00 20.6 4 Sudeste 8 Sudeste 0 927.7 0.3 37
2019-07-11 05:00:00 21.6 4 Sudeste 15 Este 0 927.4 -0.2 34
2019-07-11 04:00:00 23.4 5 Este 14 Este 0 927.5 -0.2 31
2019-07-11 03:00:00 24.9 4 Nordeste 14 Nordeste 0 927.4 -0.2 29
2019-07-11 02:00:00 26.2 5 Nordeste 23 Nordeste 0 927.6 0.4 27
2019-07-11 01:00:00 27.1 10 Norte 27 Norte 0 927.7 1.4 22
2019-07-11 00:00:00 27.8 11 Norte 22 Nordeste 0 927.6 1.5 21
2019-07-10 23:00:00 28.1 11 Norte 26 Norte 0 927.2 1.4 19
2019-07-10 22:00:00 31 6 Oeste 10 Noroeste 0 926.3 0.4 10
2019-07-10 21:00:00 34.4 6 Sudoeste 17 Sudoeste 0 926.1 -0.1 9
2019-07-10 20:00:00 37.5 5 Sudoeste 13 Norte 0 925.8 -0.7 7
2019-07-10 19:00:00 37.9 5 Sudeste 16 Sur 0 925.9 -0.9 8
2019-07-10 18:00:00 37.1 7 Sudoeste 21 Sur 0 926.2 -1.2 9
2019-07-10 17:00:00 36.4 7 Sudeste 21 Sur 0 926.5 -1.4 10
2019-07-10 16:00:00 34.4 5 Nordeste 21 Sudeste 0 926.8 -1.5 12
2019-07-10 15:00:00 33.9 7 Sudeste 23 Sudeste 0 927.4 -0.9 13
2019-07-10 14:00:00 33.2 5 Sudoeste 19 Sur 0 927.9 -0.3 14
2019-07-10 13:00:00 31.9 8 Sur 20 Este 0 928.3 0.1 17
2019-07-10 12:00:00 30.4 7 Sudeste 21 Sudeste 0 928.3 0.1 20
2019-07-10 11:00:00 27.7 4 Este 16 Norte 0 928.2 0.2 26
2019-07-10 10:00:00 23.8 7 Norte 14 Norte 0 928.2 0.4 32
2019-07-10 09:00:00 20.1 6 Norte 11 Norte 0 928.2 0.6 42
2019-07-10 08:00:00 17.7 5 Norte 12 Nordeste 0 928 0.5 48
2019-07-10 07:00:00 18 6 Nordeste 10 Nordeste 0 927.8 0.4 47
2019-07-10 06:00:00 19.2 2 Nordeste 4 Noroeste 0 927.6 0.3 43
2019-07-10 05:00:00 19.8 3 Norte 12 Sudeste 0 927.5 -0.2 43
2019-07-10 04:00:00 20.3 6 Este 15 Nordeste 0 927.4 -0.6 42
2019-07-10 03:00:00 20.8 4 Norte 5 Norte 0 927.3 -0.8 39
2019-07-10 02:00:00 21.9 3 Norte 5 Norte 0 927.7 -0.4 38
2019-07-10 01:00:00 22.2 3 Sudoeste 14 Noroeste 0 928 0.6 39
2019-07-10 00:00:00 23.1 7 Oeste 16 Oeste 0 928.1 1.1 36
2019-07-09 23:00:00 23.5 6 Oeste 12 Oeste 0 928.1 1.5 35
2019-07-09 22:00:00 24.8 6 Oeste 15 Sudoeste 0 927.4 0.9 32
2019-07-09 21:00:00 26.5 4 Sur 13 Sudoeste 0 927 0.5 29
2019-07-09 20:00:00 28.4 4 Sur 14 Oeste 0 926.6 -0.1 25
2019-07-09 19:00:00 29.2 7 Sudoeste 21 Sudoeste 0 926.5 -0.6 23
2019-07-09 18:00:00 30.8 9 Noroeste 24 Noroeste 0 926.5 -1 21
2019-07-09 17:00:00 31.6 7 Sudoeste 24 Sudoeste 0 926.7 -1.3 21
2019-07-09 16:00:00 28.7 7 Sudoeste 32 Noroeste 0 927.1 -1.2 25
2019-07-09 15:00:00 30 9 Sur 26 Sudoeste 0 927.5 -1 25
2019-07-09 14:00:00 27.9 10 Sudeste 26 Sur 0 928 -0.7 27
2019-07-09 13:00:00 26.4 9 Sur 26 Sur 0 928.3 -0.4 34
2019-07-09 12:00:00 24 9 Sur 21 Sudeste 0 928.5 0 45
2019-07-09 11:00:00 21.4 6 Sur 15 Sur 0 928.7 0.6 53
2019-07-09 10:00:00 18.7 5 Sur 13 Sudoeste 0 928.7 1 63
2019-07-09 09:00:00 15.5 2 Este 11 Este 0 928.5 1.1 75
2019-07-09 08:00:00 14.1 3 Sudeste 10 Este 0 928.1 0.5 80
2019-07-09 07:00:00 13.7 2 Nordeste 10 Sudeste 0 927.7 0.1 78
2019-07-09 06:00:00 14.2 3 Norte 13 Sudoeste 0 927.4 -0.1 76
2019-07-09 05:00:00 15.2 5 Sur 16 Sudoeste 0 927.6 -0.1 74
2019-07-09 04:00:00 15.9 7 Sudoeste 24 Sur 0 927.6 -0.4 70
2019-07-09 03:00:00 16.8 8 Sur 18 Sur 0 927.5 -0.3 65
2019-07-09 02:00:00 18 6 Sur 16 Sudoeste 0 927.7 0.2 59
2019-07-09 01:00:00 19 8 Sudoeste 17 Sudoeste 0 928 1.3 53
2019-07-09 00:00:00 20.1 8 Sudoeste 19 Sudoeste 0 927.8 2.2 47
2019-07-08 23:00:00 21.2 9 Sudoeste 30 Sudoeste 0 927.5 2.3 42
2019-07-08 22:00:00 22.6 12 Sudoeste 27 Sudoeste 0 926.7 1.7 37
2019-07-08 21:00:00 25.7 8 Sur 27 Sudoeste 0 925.6 0.3 25
2019-07-08 20:00:00 28.4 10 Sudoeste 36 Sur 0 925.2 -0.1 22
2019-07-08 19:00:00 29.1 13 Sur 34 Sur 0 925 -0.4 18
2019-07-08 18:00:00 29.6 15 Sudoeste 40 Sudoeste 0 925.3 -0.3 16
2019-07-08 17:00:00 29.7 17 Sudoeste 44 Sudoeste 0 925.3 -0.8 20
2019-07-08 16:00:00 30.2 14 Sur 39 Sur 0 925.4 -1.3 22
2019-07-08 15:00:00 29.5 13 Sudoeste 32 Sur 0 925.6 -1.4 23
2019-07-08 14:00:00 28.3 12 Sudoeste 29 Sur 0 926.1 -1.4 27
2019-07-08 13:00:00 27 9 Sur 23 Sur 0 926.7 -1.1 31
2019-07-08 12:00:00 24.9 8 Sur 17 Sur 0 927 -0.4 40
2019-07-08 11:00:00 22 6 Sur 15 Sur 0 927.5 0.7 50
2019-07-08 10:00:00 19.5 7 Sur 14 Sudeste 0 927.8 1.2 58
2019-07-08 09:00:00 16.5 3 Sudoeste 9 Sudeste 0 927.4 1.1 70
2019-07-08 08:00:00 15 3 Sur 12 Sudoeste 0 926.8 0.7 72
2019-07-08 07:00:00 14.7 3 Noroeste 10 Sur 0 926.6 0.2 69
2019-07-08 06:00:00 15.6 5 Sur 10 Sur 0 926.3 0.2 66
2019-07-08 05:00:00 16.2 0 Calma 12 Sudoeste 0 926.1 -0.5 62
2019-07-08 04:00:00 17.2 5 Sur 12 Sur 0 926.4 -0.4 57
2019-07-08 03:00:00 18.5 7 Sudoeste 16 Sudoeste 0 926.1 -0.2 53
2019-07-08 02:00:00 19.9 6 Sur 18 Sur 0 926.6 0.6 46
2019-07-08 01:00:00 21.5 7 Sudoeste 19 Sudoeste 0 926.8 1.6 41
2019-07-08 00:00:00 23.4 8 Sudoeste 26 Sudoeste 0 926.3 1.8 31
2019-07-07 23:00:00 24.7 13 Sudoeste 32 Sudoeste 0 926 1.8 24
2019-07-07 22:00:00 26.6 17 Sudoeste 36 Sudoeste 0 925.2 1 26
2019-07-07 21:00:00 29.2 19 Sudoeste 41 Sudoeste 0 924.5 0 23
2019-07-07 20:00:00 30 15 Sudoeste 34 Sudoeste 0 924.2 -0.7 22
2019-07-07 19:00:00 31.7 15 Oeste 40 Oeste 0 924.2 -1.3 20
2019-07-07 18:00:00 32.3 16 Sudoeste 36 Sudoeste 0 924.5 -1.6 20
2019-07-07 17:00:00 33.7 13 Sudoeste 32 Sudoeste 0 924.9 -1.8 19
2019-07-07 16:00:00 34.6 12 Sudoeste 35 Sudoeste 0 925.5 -1.6 16
2019-07-07 15:00:00 34.5 10 Sudoeste 35 Sur 0 926.1 -1.4 17
2019-07-07 14:00:00 33.2 8 Sur 26 Sur 0 926.7 -1.1 19
2019-07-07 13:00:00 32.6 9 Sudeste 23 Sudeste 0 927.1 -1.2 19
2019-07-07 12:00:00 28.9 5 Este 13 Este 0 927.5 -1.3 25
2019-07-07 11:00:00 26.2 3 Sudeste 15 Este 0 927.8 -0.6 31
2019-07-07 10:00:00 23 6 Norte 13 Norte 0 928.3 0 40
2019-07-07 09:00:00 19.9 3 Norte 10 Este 0 928.8 0.4 47
2019-07-07 08:00:00 18.1 3 Este 8 Sudeste 0 928.4 0.1 53
2019-07-07 07:00:00 16.7 4 Oeste 13 Este 0 928.3 -0.4 56
2019-07-07 06:00:00 18 8 Sudeste 13 Sudeste 0 928.4 -0.1 52
2019-07-07 05:00:00 18.9 4 Sudeste 13 Sur 0 928.3 0.1 49
2019-07-07 04:00:00 20.4 9 Sur 20 Sur 0 928.7 0.3 46
2019-07-07 03:00:00 22.1 5 Sur 11 Sudoeste 0 928.5 -0.1 34
2019-07-07 02:00:00 22.9 4 Sudoeste 8 Sudoeste 0 928.2 -0.4 32
2019-07-07 01:00:00 23.6 5 Sudoeste 10 Sur 0 928.4 1.1 30
2019-07-07 00:00:00 24.6 4 Sudoeste 22 Oeste 0 928.6 1.6 29
2019-07-06 23:00:00 25.5 10 Sudoeste 26 Sudoeste 0 928.6 2.1 28
2019-07-06 22:00:00 27.1 5 Sur 33 Sur 0 927.3 0.4 25
2019-07-06 21:00:00 29.1 12 Sur 30 Sur 0 927 -0.5 21
2019-07-06 20:00:00 30.7 9 Sudoeste 28 Sudoeste 0 926.5 -1.4 18
2019-07-06 19:00:00 32.6 13 Sudoeste 33 Sur 0 926.9 -1 15
2019-07-06 18:00:00 32.3 14 Sudoeste 31 Sur 0 927.5 -0.7 14
2019-07-06 17:00:00 33.7 16 Sudoeste 32 Sudoeste 0 927.9 -0.4 13
2019-07-06 16:00:00 33.1 12 Sudoeste 33 Sur 0 927.9 -0.4 16
2019-07-06 15:00:00 32.4 10 Sur 33 Sudoeste 0 928.2 -0.6 20
2019-07-06 14:00:00 34.1 13 Sudoeste 35 Sudoeste 0 928.3 -0.6 18
2019-07-06 13:00:00 32.8 9 Sudoeste 20 Sur 0 928.3 -0.5 18
2019-07-06 12:00:00 30.2 6 Sur 14 Sudeste 0 928.8 0.1 22
2019-07-06 11:00:00 27.5 4 Sur 12 Sur 0 928.9 0.2 26
2019-07-06 10:00:00 24.1 3 Sudoeste 11 Este 0 928.8 -0.3 32
2019-07-06 09:00:00 20.6 3 Noroeste 9 Sudeste 0 928.7 -0.4 38
2019-07-06 08:00:00 18.9 4 Norte 7 Norte 0 928.7 -0.5 40
2019-07-06 07:00:00 18.5 4 Norte 9 Sudeste 0 929.1 -0.4 40
2019-07-06 06:00:00 19.3 4 Sudeste 9 Este 0 929.1 -0.9 40
2019-07-06 05:00:00 19.9 3 Norte 10 Sudeste 0 929.2 -1.4 34
2019-07-06 04:00:00 21.6 5 Sudeste 13 Oeste 0 929.5 -0.9 28
2019-07-06 03:00:00 22.4 6 Oeste 15 Sudoeste 0 930 -0.2 27
2019-07-06 02:00:00 23.1 8 Sudoeste 16 Sudoeste 0 930.6 0.8 29
2019-07-06 01:00:00 23.9 6 Sur 13 Sudoeste 0 930.4 1.2 32
2019-07-06 00:00:00 25.2 4 Oeste 19 Sudoeste 0 930.2 1.4 29
2019-07-05 23:00:00 26.1 9 Sudoeste 17 Oeste 0 929.8 1.2 27
2019-07-05 22:00:00 28.2 4 Sur 17 Sudoeste 0 929.2 0.6 22
2019-07-05 21:00:00 31 9 Sudoeste 24 Sudoeste 0 928.8 -0.2 17
2019-07-05 20:00:00 34.1 12 Sudoeste 29 Noroeste 0 928.6 -0.7 13
2019-07-05 19:00:00 34.8 13 Oeste 30 Sudoeste 0 928.6 -1 13
2019-07-05 18:00:00 35.2 13 Sudoeste 35 Oeste 0 929 -1 13
2019-07-05 17:00:00 35 14 Sudoeste 34 Sudoeste 0 929.3 -1 12
2019-07-05 16:00:00 34.7 13 Sudoeste 37 Oeste 0 929.6 -1 10
2019-07-05 15:00:00 33.5 11 Oeste 33 Sudoeste 0 930 -0.8 17
2019-07-05 14:00:00 32.2 11 Sudoeste 29 Sudoeste 0 930.3 -0.4 19
2019-07-05 13:00:00 30.8 6 Sur 19 Sur 0 930.6 -0.1 26
2019-07-05 12:00:00 28.3 6 Sudeste 15 Sudeste 0 930.8 -0.1 37
2019-07-05 11:00:00 26.1 7 Sudeste 16 Sudeste 0 930.7 0 42
2019-07-05 10:00:00 22.6 3 Norte 11 Este 0 930.7 0.2 52
2019-07-05 09:00:00 19.2 3 Norte 10 Sudeste 0 930.9 0.5 63
2019-07-05 08:00:00 17.5 3 Norte 6 Norte 0 930.7 0.3 69
2019-07-05 07:00:00 17 0 Calma 6 Sur 0 930.5 -0.1 69
2019-07-05 06:00:00 18.1 4 Sudeste 11 Sur 0 930.4 -0.3 65
2019-07-05 05:00:00 18.4 5 Este 8 Este 0 930.4 0.1 64
2019-07-05 04:00:00 19.1 3 Este 12 Sur 0 930.6 0.5 60
2019-07-05 03:00:00 20.3 6 Sur 17 Sur 0 930.7 1.2 58
2019-07-05 02:00:00 21.7 9 Sur 16 Sur 0 930.3 1.3 53
2019-07-05 01:00:00 23.2 7 Sur 19 Sudoeste 0 930.1 2.1 47
2019-07-05 00:00:00 24.1 11 Sudoeste 17 Sudoeste 0 929.5 1.9 43
2019-07-04 23:00:00 25.1 5 Sur 18 Sudoeste 0 929 1.8 40
2019-07-04 22:00:00 26.4 9 Sudoeste 22 Sudoeste 0 928 1.1 37
2019-07-04 21:00:00 28.8 12 Sudoeste 30 Sudoeste 0 927.6 0.6 30
2019-07-04 20:00:00 32.5 13 Sudoeste 30 Sudoeste 0 927.2 -0.2 23
2019-07-04 19:00:00 34 11 Sudoeste 30 Sudoeste 0 926.9 -1 22
2019-07-04 18:00:00 34.6 9 Sudoeste 29 Oeste 0 927 -1.1 19
2019-07-04 17:00:00 34.3 11 Sudoeste 27 Sur 0 927.4 -1.2 15
2019-07-04 16:00:00 33.9 10 Sur 23 Sur 0 927.9 -0.9 16
2019-07-04 15:00:00 32.3 8 Sur 30 Sudoeste 0 928.1 -0.8 22
2019-07-04 14:00:00 30.5 9 Sur 24 Sur 0 928.6 -0.6 25
2019-07-04 13:00:00 29.3 8 Sur 21 Sur 0 928.8 -0.1 33
2019-07-04 12:00:00 27.1 5 Sur 16 Sur 0 928.9 0.6 41
2019-07-04 11:00:00 24.7 6 Sudeste 15 Sur 0 929.2 1.1 48
2019-07-04 10:00:00 22.1 6 Sur 18 Sur 0 928.9 0.9 56
2019-07-04 09:00:00 19.2 5 Sudeste 12 Sudeste 0 928.3 0.1 67
2019-07-04 08:00:00 17.2 6 Norte 9 Norte 0 928.1 0.1 72
2019-07-04 07:00:00 17.2 4 Sudeste 8 Sudeste 0 928 0.4 71
2019-07-04 06:00:00 17.8 3 Nordeste 10 Sur 0 928.2 0.7 69
2019-07-04 05:00:00 18.7 7 Sur 17 Sur 0 928 0.7 66
2019-07-04 04:00:00 19.6 3 Sur 16 Sur 0 927.6 0.4 63
2019-07-04 03:00:00 21.2 6 Sur 17 Sur 0 927.5 0.3 58
2019-07-04 02:00:00 22.5 7 Sur 17 Sudoeste 0 927.3 0.7 49
2019-07-04 01:00:00 23.7 6 Sudoeste 13 Sudoeste 0 927.2 1.2 43
2019-07-04 00:00:00 24.6 5 Sur 17 Sudoeste 0 927.2 1.8 42
2019-07-03 23:00:00 25.7 8 Sudoeste 21 Sur 0 926.6 1.6 38
2019-07-03 22:00:00 27.4 11 Sudoeste 22 Sudoeste 0 926 1 32
2019-07-03 21:00:00 31.1 8 Sudoeste 27 Sudoeste 0 925.4 0.1 23
2019-07-03 20:00:00 34.4 12 Sudoeste 24 Sudoeste 0 925 -0.7 17
2019-07-03 19:00:00 35.5 10 Sudoeste 26 Sudoeste 0 925 -1 17
2019-07-03 18:00:00 35 11 Sur 28 Sudoeste 0 925.3 -1.1 16
2019-07-03 17:00:00 35 13 Sur 30 Sudoeste 0 925.7 -1.3 15
2019-07-03 16:00:00 34.7 9 Sur 24 Sur 0 926 -1.3 14
2019-07-03 15:00:00 33.3 8 Sur 31 Sur 0 926.4 -1.1 15
2019-07-03 14:00:00 32.4 9 Sur 26 Sur 0 927 -0.5 20
2019-07-03 13:00:00 30.4 6 Sudoeste 19 Sur 0 927.3 -0.4 22
2019-07-03 12:00:00 28.7 7 Sur 19 Sur 0 927.5 -0.2 26
2019-07-03 11:00:00 26.4 6 Sur 16 Sur 0 927.5 0 29
2019-07-03 10:00:00 23 4 Sur 13 Sudeste 0 927.7 0.4 49
2019-07-03 09:00:00 19.2 0 Calma 7 Este 0 927.7 0.4 64
2019-07-03 08:00:00 17.8 4 Sur 11 Sur 0 927.5 0.4 69
2019-07-03 07:00:00 18 7 Sudeste 10 Sudeste 0 927.3 0.1 67
2019-07-03 06:00:00 18.7 5 Sur 10 Sur 0 927.3 0.2 64
2019-07-03 05:00:00 19.4 4 Sur 10 Oeste 0 927.1 -0.1 60
2019-07-03 04:00:00 20.4 4 Sur 12 Sur 0 927.2 0 55
2019-07-03 03:00:00 21.8 7 Sur 12 Sur 0 927.1 0 49
2019-07-03 02:00:00 22.9 4 Sur 18 Sudoeste 0 927.2 0.3 42
2019-07-03 01:00:00 24.1 11 Sudoeste 22 Sudoeste 0 927.2 1 35
2019-07-03 00:00:00 25.2 10 Sudoeste 24 Sudoeste 0 927.1 1.4 31
2019-07-02 23:00:00 26.3 11 Sudoeste 26 Sudoeste 0 926.9 1.5 31
2019-07-02 22:00:00 27.9 13 Sudoeste 29 Sudoeste 0 926.2 0.9 27
2019-07-02 21:00:00 30.7 16 Sudoeste 33 Sudoeste 0 925.7 0 23
2019-07-02 20:00:00 34.5 12 Sudoeste 37 Sudoeste 0 925.4 -0.9 19
2019-07-02 19:00:00 36.8 9 Sudoeste 32 Sudoeste 0 925.3 -1.4 13
2019-07-02 18:00:00 36.5 9 Oeste 26 Sudoeste 0 925.7 -1.4 11
2019-07-02 17:00:00 36.1 7 Sudoeste 25 Sur 0 926.3 -1.3 15
2019-07-02 16:00:00 35.6 8 Sur 26 Sur 0 926.7 -1.4 15
2019-07-02 15:00:00 34.3 8 Sur 23 Sudoeste 0 927.1 -1.3 18
2019-07-02 14:00:00 32.7 8 Sur 21 Sur 0 927.6 -0.7 23
2019-07-02 13:00:00 31 6 Sur 19 Sur 0 928.1 -0.5 26
2019-07-02 12:00:00 28.7 7 Sur 16 Sur 0 928.4 -0.2 31
2019-07-02 11:00:00 26.5 5 Sur 12 Sur 0 928.3 0 37
2019-07-02 10:00:00 23.4 3 Sur 9 Sur 0 928.6 0.4 49
2019-07-02 09:00:00 20.3 4 Sur 9 Sudeste 0 928.6 0.5 59
2019-07-02 08:00:00 18.1 2 Este 7 Noroeste 0 928.3 0.4 66
2019-07-02 07:00:00 17.9 3 Noroeste 7 Sur 0 928.2 -0.2 66
2019-07-02 06:00:00 19 6 Sur 12 Sur 0 928.1 -0.5 61
2019-07-02 05:00:00 20.5 5 Sur 8 Sur 0 927.9 -1.1 58
2019-07-02 04:00:00 21.1 3 Este 10 Sur 0 928.4 -1 56
2019-07-02 03:00:00 22.4 5 Sur 11 Sudoeste 0 928.6 -1 52
2019-07-02 02:00:00 23.5 5 Sur 20 Sur 0 929 0 49
2019-07-02 01:00:00 24.6 8 Sudoeste 19 Sur 0 929.4 1.4 36
2019-07-02 00:00:00 25.9 9 Sudoeste 21 Sudoeste 0 929.6 2.2 33
2019-07-01 23:00:00 27 10 Sudoeste 23 Sudoeste 0 929 1.9 32
2019-07-01 22:00:00 28.6 13 Sudoeste 27 Sudoeste 0 928 1 27
2019-07-01 21:00:00 31.8 12 Sudoeste 29 Sudoeste 0 927.4 -0.1 18
2019-07-01 20:00:00 35.3 14 Sudoeste 32 Sudoeste 0 927.1 -0.9 14
2019-07-01 19:00:00 37.3 10 Sudoeste 38 Sur 0 927 -1.7 13
2019-07-01 18:00:00 37.1 11 Sudoeste 27 Sudoeste 0 927.5 -1.8 12
2019-07-01 17:00:00 36.7 10 Sur 24 Oeste 0 928 -1.7 13
2019-07-01 16:00:00 36.1 9 Sur 27 Sur 0 928.7 -1.5 16
2019-07-01 15:00:00 34.4 9 Sur 27 Sur 0 929.3 -1.2 24
2019-07-01 14:00:00 32.8 9 Sur 24 Sudoeste 0 929.7 -1.1 30
2019-07-01 13:00:00 31.2 6 Sur 22 Sur 0 930.2 -0.9 32
2019-07-01 12:00:00 29.4 7 Sudoeste 20 Sudoeste 0 930.5 -0.5 38
2019-07-01 11:00:00 26.6 4 Sur 12 Sudeste 0 930.8 -0.2 47
2019-07-01 10:00:00 23.6 4 Sudeste 11 Este 0 931.1 0.3 58
2019-07-01 09:00:00 20.4 2 Norte 7 Nordeste 0 931 0.2 70
2019-07-01 08:00:00 18.9 3 Norte 9 Sur 0 931 0.5 76
2019-07-01 07:00:00 19.1 5 Sudeste 12 Sur 0 930.8 0 74
2019-07-01 06:00:00 19.9 5 Sur 13 Sur 0 930.8 -0.4 71
2019-07-01 05:00:00 20.9 6 Sur 10 Sur 0 930.5 -1.1 65
2019-07-01 04:00:00 21.7 3 Sur 9 Sudoeste 0 930.8 -0.7 60
2019-07-01 03:00:00 22.5 4 Sur 14 Sudoeste 0 931.2 0.1 57
2019-07-01 02:00:00 23.6 5 Sudoeste 21 Sudoeste 0 931.6 1.4 54
2019-07-01 01:00:00 24.7 9 Sudoeste 31 Sudoeste 0 931.5 2.3 49
2019-07-01 00:00:00 26.2 16 Sudoeste 31 Sudoeste 0 931.1 2.1 37
2019-06-30 23:00:00 27.8 12 Sudoeste 23 Sudoeste 0 930.2 1.3 31
2019-06-30 22:00:00 30.2 9 Sur 22 Sur 0 929.2 0.3 26
2019-06-30 21:00:00 33.9 6 Sur 22 Sudoeste 0 929 -0.3 16
2019-06-30 20:00:00 36.7 10 Sur 29 Sudoeste 0 928.9 -0.9 14
2019-06-30 19:00:00 38.5 12 Sudoeste 24 Oeste 0 928.9 -1.4 12
2019-06-30 18:00:00 38.8 9 Sudoeste 28 Sudoeste 0 929.3 -1.4 12
2019-06-30 17:00:00 37.8 12 Sudoeste 31 Sudoeste 0 929.8 -1.2 12
2019-06-30 16:00:00 37.2 12 Sudoeste 25 Sudoeste 0 930.3 -0.9 14
2019-06-30 15:00:00 35.9 7 Sudoeste 22 Sudoeste 0 930.7 -0.6 16
2019-06-30 14:00:00 34.4 9 Sudeste 19 Sur 0 931 -0.1 21
2019-06-30 13:00:00 32.3 6 Sur 23 Sur 0 931.2 0.2 30
2019-06-30 12:00:00 29.3 8 Sur 21 Sur 0 931.3 0.4 37
2019-06-30 11:00:00 27.5 8 Sur 18 Sur 0 931.1 0.8 43
2019-06-30 10:00:00 25.2 4 Sur 14 Norte 0 931 0.8 51
2019-06-30 09:00:00 22.8 7 Sudoeste 19 Sudoeste 0 930.9 0.7 58
2019-06-30 08:00:00 20 4 Norte 9 Norte 0 930.3 0.4 66
2019-06-30 07:00:00 19.9 2 Nordeste 7 Sur 0 930.2 0.3 67
2019-06-30 06:00:00 21.1 4 Sur 8 Sudeste 0 930.2 0.5 63
2019-06-30 05:00:00 22 5 Sudeste 12 Sudeste 0 929.9 0.2 59
2019-06-30 04:00:00 23 3 Sudoeste 17 Sur 0 929.9 0.4 56
2019-06-30 03:00:00 24.3 9 Sur 20 Sur 0 929.7 0.6 50
2019-06-30 02:00:00 26.1 8 Sudoeste 24 Sudoeste 0 929.7 1.4 36
2019-06-30 01:00:00 27.6 12 Sudoeste 23 Sudoeste 0 929.5 2.4 26
2019-06-30 00:00:00 28.8 9 Sudoeste 24 Sur 0 929.1 2.4 23
2019-06-29 23:00:00 30.3 14 Sudoeste 22 Sudoeste 0 928.3 1.9 21
2019-06-29 22:00:00 32.5 8 Sur 26 Sudoeste 0 927.1 0.7 19
2019-06-29 21:00:00 36.6 11 Sudoeste 22 Sudoeste 0 926.7 0.1 14
2019-06-29 20:00:00 41.2 8 Sudoeste 18 Sudoeste 0 926.4 -0.5 7
2019-06-29 19:00:00 42.1 6 Sur 24 Sur 0 926.4 -0.7 6
2019-06-29 18:00:00 41.9 9 Sur 31 Sur 0 926.6 -1 7
2019-06-29 17:00:00 42.2 9 Sur 23 Sur 0 926.9 -1.3 9
2019-06-29 16:00:00 41.6 9 Sudoeste 22 Sudoeste 0 927.1 -1.6 9
2019-06-29 15:00:00 40 6 Sur 18 Norte 0 927.6 -1.4 11
2019-06-29 14:00:00 37.9 4 Nordeste 18 Sudeste 0 928.2 -1.1 14
2019-06-29 13:00:00 36 6 Sudeste 19 Noroeste 0 928.7 -0.7 20
2019-06-29 12:00:00 32.9 9 Nordeste 22 Norte 0 929 -0.1 27
2019-06-29 11:00:00 30.7 4 Este 14 Sudeste 0 929.3 0.2 30
2019-06-29 10:00:00 27.4 3 Este 7 Norte 0 929.4 0.4 42
2019-06-29 09:00:00 23.4 3 Nordeste 6 Norte 0 929.1 0.1 51
2019-06-29 08:00:00 20.9 0 Calma 4 Este 0 929.1 0 55
2019-06-29 07:00:00 20.9 3 Norte 6 Sur 0 929 -0.1 58
2019-06-29 06:00:00 21.5 0 Calma 6 Sur 0 929 -0.2 55
2019-06-29 05:00:00 22.5 2 Sudoeste 10 Sudeste 0 929.1 0 50
2019-06-29 04:00:00 23.6 4 Sur 14 Sur 0 929.1 0.1 44
2019-06-29 03:00:00 24.5 8 Sur 13 Sur 0 929.2 0.6 41
2019-06-29 02:00:00 26.2 5 Sur 17 Sur 0 929.1 0.8 35
2019-06-29 01:00:00 27 8 Sudoeste 15 Sudoeste 0 929 1.4 34
2019-06-29 00:00:00 28.2 5 Sudeste 7 Sudeste 0 928.6 1.5 32
2019-06-28 23:00:00 29.7 5 Sur 11 Sur 0 928.3 1.7 28
2019-06-28 22:00:00 31.8 6 Sur 14 Sur 0 927.6 1.2 24
2019-06-28 21:00:00 35.5 7 Sur 22 Sur 0 927.1 0.6 17
2019-06-28 20:00:00 39.9 6 Sur 22 Sudoeste 0 926.6 -0.1 12
2019-06-28 19:00:00 42.2 8 Sur 27 Sur 0 926.4 -0.8 9
2019-06-28 18:00:00 42.5 10 Sur 28 Sur 0 926.5 -1.2 7
2019-06-28 17:00:00 42.4 8 Sudeste 27 Sudeste 0 926.7 -1.3 7
2019-06-28 16:00:00 42 8 Sudeste 31 Este 0 927.2 -1.3 7
2019-06-28 15:00:00 40.6 12 Sudeste 25 Sudeste 0 927.7 -1.1 7
2019-06-28 14:00:00 38.9 9 Sur 19 Sur 0 928 -1.1 9
2019-06-28 13:00:00 37.4 5 Sudeste 18 Sur 0 928.5 -0.7 10
2019-06-28 12:00:00 34.9 8 Sudeste 17 Sudeste 0 928.8 -0.4 12
2019-06-28 11:00:00 32 4 Sudeste 14 Sudeste 0 929.1 -0.1 19
2019-06-28 10:00:00 27.4 5 Norte 14 Norte 0 929.2 -0.1 29
2019-06-28 09:00:00 24.6 5 Nordeste 16 Nordeste 0 929.2 -0.3 38
2019-06-28 08:00:00 22.1 6 Nordeste 11 Nordeste 0 929.2 -0.7 43
2019-06-28 07:00:00 21.2 4 Noroeste 10 Noroeste 0 929.3 -1.1 45
2019-06-28 06:00:00 22.2 3 Noroeste 5 Noroeste 0 929.5 -1 43
2019-06-28 05:00:00 22.6 4 Sudeste 9 Sudeste 0 929.9 -0.9 43
2019-06-28 04:00:00 22.8 3 Nordeste 12 Sudeste 0 930.4 -0.5 48
2019-06-28 03:00:00 23.3 4 Sur 17 Sur 0 930.5 -0.2 50
2019-06-28 02:00:00 24.3 3 Noroeste 12 Sudoeste 0 930.8 0.5 49
2019-06-28 01:00:00 25 5 Sur 10 Sur 0 930.9 1.7 47
2019-06-28 00:00:00 26.1 5 Sur 9 Sur 0 930.7 2.2 43
2019-06-27 23:00:00 27.2 6 Sur 19 Sur 0 930.3 2.3 41
2019-06-27 22:00:00 28.9 9 Sur 27 Sur 0 929.2 1.5 36
2019-06-27 21:00:00 32.1 9 Sur 23 Sudoeste 0 928.5 0.6 29
2019-06-27 20:00:00 35.8 9 Sur 23 Sur 0 928 -0.2 23
2019-06-27 19:00:00 37.9 9 Sudoeste 24 Sur 0 927.7 -1.2 19
2019-06-27 18:00:00 37.9 6 Sur 22 Sur 0 927.9 -1.7 19
2019-06-27 17:00:00 37.4 7 Sur 21 Sur 0 928.2 -1.9 19
2019-06-27 16:00:00 36 6 Sur 23 Sudoeste 0 928.9 -1.5 21
2019-06-27 15:00:00 34.3 10 Sudeste 21 Sudeste 0 929.6 -0.9 22
2019-06-27 14:00:00 32.4 8 Sur 19 Sur 0 930.1 -0.4 26
2019-06-27 13:00:00 30.6 8 Sur 21 Sur 0 930.4 -0.1 29
2019-06-27 12:00:00 28 8 Sur 20 Sudoeste 0 930.5 0.6 37
2019-06-27 11:00:00 24.1 4 Sudeste 10 Sur 0 930.5 1.1 51
2019-06-27 10:00:00 20.2 3 Sudeste 12 Sudeste 0 930.5 1.5 64
2019-06-27 09:00:00 18.6 3 Sudeste 7 Sudeste 0 929.9 1.1 69
2019-06-27 08:00:00 18.3 2 Sur 13 Sur 0 929.4 0.5 69
2019-06-27 07:00:00 18.7 8 Sur 13 Sur 0 929 -0.2 66
2019-06-27 06:00:00 19.7 6 Sur 12 Sur 0 928.8 -0.9 61
2019-06-27 05:00:00 20.7 2 Sudeste 6 Norte 0 928.9 -1.2 56
2019-06-27 04:00:00 21.6 3 Sudeste 9 Este 0 929.2 -1.5 53
2019-06-27 03:00:00 22.6 0 Calma 5 Este 0 929.7 -0.9 51
2019-06-27 02:00:00 22.9 4 Norte 8 Norte 0 930.1 0.3 49
2019-06-27 01:00:00 24.1 4 Sur 9 Sudoeste 0 930.7 2 46
2019-06-27 00:00:00 24.9 4 Sur 11 Sur 0 930.6 2.5 43
2019-06-26 23:00:00 26.3 5 Sur 19 Sur 0 929.8 2.2 39
2019-06-26 22:00:00 28.4 10 Sur 25 Sur 0 928.7 1.1 31
2019-06-26 21:00:00 32.3 9 Sur 23 Sur 0 928.1 0.2 26
2019-06-26 20:00:00 35.9 8 Sur 22 Sur 0 927.6 -0.5 20
2019-06-26 19:00:00 36.6 11 Sudoeste 23 Sudoeste 0 927.6 -1 19
2019-06-26 18:00:00 36 8 Sudoeste 29 Sur 0 927.9 -1.5 19
2019-06-26 17:00:00 35.9 8 Sur 24 Sur 0 928.1 -1.8 18
2019-06-26 16:00:00 35.5 8 Sur 22 Sur 0 928.6 -1.8 19
2019-06-26 15:00:00 33.9 8 Sur 22 Sudoeste 0 929.4 -1.2 23
2019-06-26 14:00:00 32.3 5 Sur 21 Sur 0 929.9 -0.6 25
2019-06-26 13:00:00 30.8 8 Sur 20 Sur 0 930.4 -0.2 28
2019-06-26 12:00:00 29.2 6 Sur 15 Sur 0 930.6 0.3 30
2019-06-26 11:00:00 26.4 5 Sur 12 Sudoeste 0 930.5 0.6 37
2019-06-26 10:00:00 23.2 3 Sur 10 Sur 0 930.6 1.1 45
2019-06-26 09:00:00 20.1 3 Sudeste 10 Este 0 930.3 0.9 54
2019-06-26 08:00:00 18.3 0 Calma 4 Sudeste 0 929.9 0.8 56
2019-06-26 07:00:00 18.3 2 Sur 4 Noroeste 0 929.5 0.5 55
2019-06-26 06:00:00 18.9 3 Este 9 Sur 0 929.4 0.6 52
2019-06-26 05:00:00 19.9 4 Sur 9 Sur 0 929.1 0 49
2019-06-26 04:00:00 20.9 4 Sur 13 Sur 0 929 0 45
2019-06-26 03:00:00 22.5 6 Sur 10 Sudoeste 0 928.8 0 42
2019-06-26 02:00:00 23.1 4 Sur 12 Sur 0 929.1 0.6 43
2019-06-26 01:00:00 24.4 7 Sur 14 Sur 0 929 1.3 37
2019-06-26 00:00:00 26 5 Sur 14 Sudoeste 0 928.8 1.7 32
2019-06-25 23:00:00 27.4 8 Sudoeste 18 Sudoeste 0 928.5 1.7 28
2019-06-25 22:00:00 29.1 9 Sudoeste 20 Sudoeste 0 927.7 1.1 24
2019-06-25 21:00:00 32.4 9 Sudoeste 22 Sudoeste 0 927.1 0.3 21
2019-06-25 20:00:00 35.7 8 Sudoeste 33 Sudoeste 0 926.8 -0.5 17
2019-06-25 19:00:00 36.9 9 Sur 25 Oeste 0 926.6 -1.1 16
2019-06-25 18:00:00 36.5 8 Sur 28 Sudoeste 0 926.8 -1.4 15
2019-06-25 17:00:00 36.4 8 Sudoeste 25 Sudoeste 0 927.3 -1.6 14
2019-06-25 16:00:00 35.6 10 Sudoeste 26 Sudoeste 0 927.7 -1.7 17
2019-06-25 15:00:00 33.9 9 Sudoeste 26 Sudoeste 0 928.2 -1.2 19
2019-06-25 14:00:00 32.1 8 Oeste 22 Sur 0 928.9 -0.7 23
2019-06-25 13:00:00 30.5 5 Sur 17 Sur 0 929.4 -0.3 28
2019-06-25 12:00:00 28.3 6 Sudoeste 15 Sur 0 929.4 0 31
2019-06-25 11:00:00 25.9 5 Sudeste 12 Sur 0 929.6 0.5 39
2019-06-25 10:00:00 22.7 2 Noroeste 10 Norte 0 929.7 1.2 52
2019-06-25 09:00:00 19.1 2 Noroeste 8 Sur 0 929.4 1.3 62
2019-06-25 08:00:00 17.9 4 Sur 9 Sur 0 929.1 1.2 67
2019-06-25 07:00:00 17.4 0 Calma 5 Este 0 928.5 0.1 60
2019-06-25 06:00:00 18 4 Este 10 Sudeste 0 928.1 -0.2 61
2019-06-25 05:00:00 18.9 5 Sudoeste 11 Sur 0 927.9 -0.6 56
2019-06-25 04:00:00 19.3 6 Sur 12 Sur 0 928.4 0 53
2019-06-25 03:00:00 20.2 2 Norte 10 Sur 0 928.3 0.1 45
2019-06-25 02:00:00 21.5 3 Sudoeste 16 Sudoeste 0 928.5 0.6 41
2019-06-25 01:00:00 22.4 5 Sudoeste 14 Oeste 0 928.4 1 34
2019-06-25 00:00:00 23.3 5 Sudoeste 18 Sur 0 928.2 1.2 31
2019-06-24 23:00:00 24.3 10 Sudoeste 20 Sudoeste 0 927.9 1.4 28
2019-06-24 22:00:00 25.7 5 Sur 19 Sudoeste 0 927.4 1.1 24
2019-06-24 21:00:00 28.1 11 Sudoeste 27 Sudoeste 0 927 0.6 21
2019-06-24 20:00:00 31.3 12 Sudoeste 29 Sudoeste 0 926.5 0 21
2019-06-24 19:00:00 33.6 13 Sudoeste 29 Sudoeste 0 926.3 -0.5 19
2019-06-24 18:00:00 33.3 10 Oeste 30 Sudoeste 0 926.4 -0.6 20
2019-06-24 17:00:00 33.3 9 Sudoeste 24 Sudoeste 0 926.5 -0.7 19
2019-06-24 16:00:00 31.8 6 Sur 20 Sudoeste 0 926.8 -0.6 21
2019-06-24 15:00:00 28.8 8 Sur 22 Sur 0 927 -0.5 28
2019-06-24 14:00:00 29.7 8 Sur 19 Sur 0 927.2 -0.4 27
2019-06-24 13:00:00 28.5 8 Sur 21 Sur 0 927.4 -0.2 31
2019-06-24 12:00:00 27.2 7 Sur 18 Sur 0 927.5 0.1 32
2019-06-24 11:00:00 26.7 6 Sur 14 Sur 0 927.6 0.2 35
2019-06-24 10:00:00 23.7 5 Sudoeste 11 Sur 0 927.6 0.7 47
2019-06-24 09:00:00 19.8 2 Norte 12 Sur 0 927.4 0.8 60
2019-06-24 08:00:00 17.9 5 Sur 10 Sur 0 927.4 0.7 67
2019-06-24 07:00:00 17.9 4 Sudeste 10 Sur 0 926.9 0 66
2019-06-24 06:00:00 18.6 4 Sur 9 Sur 0 926.6 -0.4 64
2019-06-24 05:00:00 19.4 3 Sur 10 Sudeste 0 926.7 -0.3 61
2019-06-24 04:00:00 20.3 3 Sur 13 Sur 0 926.9 0 57
2019-06-24 03:00:00 21.4 5 Sur 13 Sudoeste 0 927 0.3 46
2019-06-24 02:00:00 22.1 4 Sur 12 Sur 0 927 0.9 40
2019-06-24 01:00:00 23.8 6 Sur 14 Sudoeste 0 926.9 1.8 30
2019-06-24 00:00:00 24.9 8 Sudoeste 14 Sudoeste 0 926.7 2 27
2019-06-23 23:00:00 25.9 8 Sudoeste 24 Sudoeste 0 926.1 2 26
2019-06-23 22:00:00 27.5 13 Sudoeste 28 Sudoeste 0 925.1 1.2 25
2019-06-23 21:00:00 30 14 Sudoeste 31 Sudoeste 0 924.7 0.5 21
2019-06-23 20:00:00 34.2 10 Sudoeste 30 Sudoeste 0 924.1 -0.5 16
2019-06-23 19:00:00 37.2 11 Sudoeste 26 Sudoeste 0 923.9 -1.5 13
2019-06-23 18:00:00 37.3 9 Sudoeste 26 Sudoeste 0 924.2 -1.9 12
2019-06-23 17:00:00 36.1 9 Sur 19 Sur 0 924.6 -1.9 13
2019-06-23 16:00:00 35.4 6 Sur 21 Sudoeste 0 925.4 -1.6 13
2019-06-23 15:00:00 34.3 10 Sudoeste 23 Sur 0 926.1 -1.2 14
2019-06-23 14:00:00 32.2 6 Sudoeste 16 Sudoeste 0 926.5 -1 17
2019-06-23 13:00:00 30.9 6 Sur 19 Sur 0 927 -0.8 19
2019-06-23 12:00:00 28.5 5 Sur 14 Sudoeste 0 927.3 -0.6 24
2019-06-23 11:00:00 25.6 4 Norte 12 Norte 0 927.5 -0.2 31
2019-06-23 10:00:00 22.5 2 Sur 8 Sudeste 0 927.8 0.3 38
2019-06-23 09:00:00 19.1 3 Sur 6 Sur 0 927.9 0.9 48
2019-06-23 08:00:00 17.7 0 Calma 9 Sudeste 0 927.7 0.7 53
2019-06-23 07:00:00 17.4 4 Sur 9 Sur 0 927.5 0.4 53
2019-06-23 06:00:00 18 5 Sur 12 Sur 0 927 -0.3 51
2019-06-23 05:00:00 18.4 4 Sudeste 15 Sudoeste 0 927 -0.3 50
2019-06-23 04:00:00 19.1 4 Sur 11 Sur 0 927.1 0 47
2019-06-23 03:00:00 20.2 3 Sudeste 12 Sur 0 927.3 0.3 41
2019-06-23 02:00:00 21.8 4 Sur 19 Sur 0 927.3 0.6 33
2019-06-23 01:00:00 24.2 5 Sudoeste 12 Oeste 0 927.1 0.9 25
2019-06-23 00:00:00 24.6 6 Oeste 12 Oeste 0 927 1.2 25
2019-06-22 23:00:00 25.7 4 Noroeste 15 Oeste 0 926.7 1 23
2019-06-22 22:00:00 27.5 5 Sudoeste 16 Sudoeste 0 926.2 0.4 21
2019-06-22 21:00:00 30 8 Oeste 20 Sudoeste 0 925.8 -0.5 18
2019-06-22 20:00:00 33.2 10 Sudoeste 20 Sudoeste 0 925.7 -1 14
2019-06-22 19:00:00 33.8 7 Sudoeste 23 Sudoeste 0 925.8 -1.3 14
2019-06-22 18:00:00 32.9 10 Oeste 23 Oeste 0 926.3 -1.5 15
2019-06-22 17:00:00 33.3 8 Sur 29 Oeste 0 926.7 -1.4 14
2019-06-22 16:00:00 33.1 11 Oeste 28 Sudoeste 0 927.1 -1.6 13
2019-06-22 15:00:00 31.8 7 Sur 24 Oeste 0 927.8 -1.2 14
2019-06-22 14:00:00 31.6 9 Sur 26 Sur 0 928.1 -0.8 17
2019-06-22 13:00:00 29.7 9 Sudoeste 19 Sudoeste 0 928.7 -0.3 20
2019-06-22 12:00:00 27.5 9 Sur 26 Sur 0 929 0.3 27
2019-06-22 11:00:00 26.2 10 Sur 23 Sur 0 928.9 0.5 28
2019-06-22 10:00:00 23.8 4 Sudeste 11 Sudeste 0 929 1.1 31
2019-06-22 09:00:00 19.6 2 Noroeste 7 Norte 0 928.7 1 35
2019-06-22 08:00:00 17.1 3 Sudeste 6 Sudeste 0 928.4 0.9 39
2019-06-22 07:00:00 16.9 3 Este 6 Sudeste 0 927.9 0 33
2019-06-22 06:00:00 17.2 3 Este 6 Norte 0 927.7 -0.4 32
2019-06-22 05:00:00 18.4 2 Nordeste 6 Este 0 927.5 -0.7 30
2019-06-22 04:00:00 18.9 3 Norte 9 Este 0 927.9 -0.4 29
2019-06-22 03:00:00 20.3 3 Este 6 Nordeste 0 928.1 -0.2 26
2019-06-22 02:00:00 21.4 4 Este 8 Este 0 928.2 0.2 24
2019-06-22 01:00:00 22.3 2 Oeste 14 Noroeste 0 928.3 1 23
2019-06-22 00:00:00 23 6 Noroeste 18 Noroeste 0 928.3 1.4 21
2019-06-21 23:00:00 23.6 3 Norte 11 Oeste 0 928 1.5 24
2019-06-21 22:00:00 25.2 5 Sudoeste 15 Sudoeste 0 927.3 1.1 23
2019-06-21 21:00:00 27.3 7 Sur 26 Sur 0 926.9 0.6 18
2019-06-21 20:00:00 31.2 10 Sur 30 Sur 0 926.5 -0.1 14
2019-06-21 19:00:00 32.1 10 Sur 28 Sur 0 926.2 -0.8 15
2019-06-21 18:00:00 32 8 Sur 26 Sudoeste 0 926.3 -1 17
2019-06-21 17:00:00 31.5 10 Sudoeste 27 Sur 0 926.6 -1.1 17
2019-06-21 16:00:00 30.5 12 Oeste 28 Sudoeste 0 927 -1.1 21
2019-06-21 15:00:00 29.9 10 Sur 28 Sudoeste 0 927.3 -1.1 24
2019-06-21 14:00:00 28.2 10 Sur 24 Sudeste 0 927.7 -0.9 27
2019-06-21 13:00:00 27.2 8 Sur 23 Sur 0 928.1 -0.4 30
2019-06-21 12:00:00 25.1 9 Sur 24 Sur 0 928.4 0.1 35
2019-06-21 11:00:00 22.4 5 Sur 15 Sudoeste 0 928.6 0.4 42
2019-06-21 10:00:00 19.3 4 Sur 9 Sur 0 928.5 0.8 54
2019-06-21 09:00:00 15.9 4 Sudeste 8 Sur 0 928.3 0.8 67
2019-06-21 08:00:00 14.3 2 Nordeste 9 Norte 0 928.2 1 72
2019-06-21 07:00:00 14.1 4 Sudeste 6 Sudeste 0 927.7 0.5 70
2019-06-21 06:00:00 14.6 3 Sur 9 Sur 0 927.5 0.3 68
2019-06-21 05:00:00 15.5 3 Sur 6 Oeste 0 927.2 -0.1 67
2019-06-21 04:00:00 16.2 3 Oeste 11 Sudoeste 0 927.2 -0.2 65
2019-06-21 03:00:00 17.3 4 Sur 15 Sudoeste 0 927.2 0 61
2019-06-21 02:00:00 18 7 Sudoeste 13 Sudoeste 0 927.3 0.5 55
2019-06-21 01:00:00 18.9 8 Sudoeste 18 Sudoeste 0 927.4 1.4 50
2019-06-21 00:00:00 20 4 Sur 17 Sudoeste 0 927.2 1.7 42
2019-06-20 23:00:00 20.9 10 Sudoeste 26 Sudoeste 0 926.8 1.3 39
2019-06-20 22:00:00 22.5 13 Sudoeste 30 Sudoeste 0 926 0.7 36
2019-06-20 21:00:00 25.6 13 Sudoeste 31 Sudoeste 0 925.5 0.1 29
2019-06-20 20:00:00 29 18 Sudoeste 36 Sudoeste 0 925.5 -0.1 23
2019-06-20 19:00:00 30.2 17 Sudoeste 32 Sudoeste 0 925.3 -0.5 21
2019-06-20 18:00:00 30.8 15 Sudoeste 36 Sudoeste 0 925.4 -1 20
2019-06-20 17:00:00 30.9 10 Sudoeste 30 Sudoeste 0 925.6 -1.3 18
2019-06-20 16:00:00 30.4 8 Sudoeste 26 Oeste 0 925.8 -1.5 19
2019-06-20 15:00:00 28.8 9 Sur 23 Sudoeste 0 926.4 -1.1 26
2019-06-20 14:00:00 27.5 6 Sudoeste 23 Sur 0 926.9 -0.6 31
2019-06-20 13:00:00 26.1 8 Sudoeste 21 Sudoeste 0 927.3 -0.3 38
2019-06-20 12:00:00 24.5 4 Sudeste 15 Sur 0 927.5 -0.1 42
2019-06-20 11:00:00 21.9 5 Sur 13 Sudoeste 0 927.5 0 53
2019-06-20 10:00:00 19.1 6 Sudeste 13 Este 0 927.6 0.2 63
2019-06-20 09:00:00 16.2 3 Este 8 Sur 0 927.6 0.2 78
2019-06-20 08:00:00 13.9 0 Calma 7 Norte 0 927.5 0.1 81
2019-06-20 07:00:00 14.1 2 Noroeste 8 Sudeste 0 927.4 -0.2 79
2019-06-20 06:00:00 14.8 2 Sur 9 Sur 0 927.4 -0.4 76
2019-06-20 05:00:00 15.6 5 Sur 10 Sur 0 927.4 -0.6 74
2019-06-20 04:00:00 16.4 3 Sur 15 Sur 0 927.6 -0.3 70
2019-06-20 03:00:00 17.9 7 Sur 13 Sur 0 927.8 -0.1 59
2019-06-20 02:00:00 19.4 7 Sudeste 12 Este 0 928 0.2 43
2019-06-20 01:00:00 20.2 4 Noroeste 10 Oeste 0 927.9 0.6 39
2019-06-20 00:00:00 21.1 7 Oeste 16 Sudoeste 0 927.9 0.8 35